Home > Products > Valid Products > TAF

000
FTUS42 KKEY 280500
TAFEYW
TAF
KEYW 280522Z 2806/2906 12005KT P6SM SKC
     FM281500 VRB05KT P6SM FEW025=



000
FTUS42 KKEY 280500
TAFEYW
TAF
KEYW 280522Z 2806/2906 12005KT P6SM SKC
     FM281500 VRB05KT P6SM FEW025=



000
FTUS42 KKEY 272300
TAFEYW
TAF
KEYW 272337Z 2800/2824 VRB05KT P6SM SKC=



000
FTUS42 KKEY 272300
TAFEYW
TAF
KEYW 272337Z 2800/2824 VRB05KT P6SM SKC=



000
FTUS42 KKEY 271700
TAFEYW
TAF
KEYW 271738Z 2718/2818 13006KT P6SM SKC
     FM280000 VRB06KT P6SM SCT020=



000
FTUS42 KKEY 271700
TAFEYW
TAF
KEYW 271738Z 2718/2818 13006KT P6SM SKC
     FM280000 VRB06KT P6SM SCT020=



000
FTUS42 KKEY 271400 AAA
TAFEYW
TAF AMD
KEYW 271430Z 2715/2812 13006KT P6SM FEW030=



000
FTUS42 KKEY 271400 AAA
TAFEYW
TAF AMD
KEYW 271430Z 2715/2812 13006KT P6SM FEW030=



000
FTUS42 KKEY 271100
TAFEYW
TAF
KEYW 271131Z 2712/2812 12008KT P6SM FEW025=



000
FTUS42 KKEY 271100
TAFEYW
TAF
KEYW 271131Z 2712/2812 12008KT P6SM FEW025=



000
FTUS42 KKEY 270800 AAA
TAFEYW
TAF AMD
KEYW 270852Z 2709/2806 12008KT P6SM FEW025=



000
FTUS42 KKEY 270800 AAA
TAFEYW
TAF AMD
KEYW 270852Z 2709/2806 12008KT P6SM FEW025=



000
FTUS42 KKEY 270500
TAFEYW
TAF
KEYW 270521Z 2706/2806 12008KT P6SM FEW025=



000
FTUS42 KKEY 270500
TAFEYW
TAF
KEYW 270521Z 2706/2806 12008KT P6SM FEW025=



000
FTUS42 KKEY 262300 RRA
TAFEYW
TAF
KEYW 262341Z 2700/2724 12008KT P6SM FEW022=



000
FTUS42 KKEY 262300 RRA
TAFEYW
TAF
KEYW 262341Z 2700/2724 12008KT P6SM FEW022=



000
FTUS42 KKEY 261700
TAFEYW
TAF
KEYW 261720Z 2618/2718 13008KT P6SM FEW025=



000
FTUS42 KKEY 261700
TAFEYW
TAF
KEYW 261720Z 2618/2718 13008KT P6SM FEW025=



000
FTUS42 KKEY 261100
TAFEYW
TAF
KEYW 261124Z 2612/2712 13009KT P6SM FEW020=



000
FTUS42 KKEY 261100
TAFEYW
TAF
KEYW 261124Z 2612/2712 13009KT P6SM FEW020=



000
FTUS42 KKEY 260900 AAA
TAFEYW
TAF AMD
KEYW 260914Z 2609/2706 12010KT P6SM VCSH SCT020 SCT080
     FM261300 12007KT P6SM FEW020=



000
FTUS42 KKEY 260900 AAA
TAFEYW
TAF AMD
KEYW 260914Z 2609/2706 12010KT P6SM VCSH SCT020 SCT080
     FM261300 12007KT P6SM FEW020=



000
FTUS42 KKEY 260500
TAFEYW
TAF
KEYW 260520Z 2606/2706 12007KT P6SM VCSH SCT020 SCT080
     FM261300 12007KT P6SM FEW020=



000
FTUS42 KKEY 260500
TAFEYW
TAF
KEYW 260520Z 2606/2706 12007KT P6SM VCSH SCT020 SCT080
     FM261300 12007KT P6SM FEW020=



000
FTUS42 KKEY 260200 AAA
TAFEYW
TAF AMD
KEYW 260243Z 2603/2624 09006KT P6SM VCSH SCT020 SCT080
     FM260800 12007KT P6SM FEW020=



000
FTUS42 KKEY 260200 AAA
TAFEYW
TAF AMD
KEYW 260243Z 2603/2624 09006KT P6SM VCSH SCT020 SCT080
     FM260800 12007KT P6SM FEW020=



000
FTUS42 KKEY 252300
TAFEYW
TAF
KEYW 252328Z 2600/2624 12007KT P6SM FEW020=



000
FTUS42 KKEY 252300
TAFEYW
TAF
KEYW 252328Z 2600/2624 12007KT P6SM FEW020=



000
FTUS42 KKEY 252000 RRA
TAFEYW
TAF
KEYW 252023Z 2520/2618 14007KT P6SM FEW025=



000
FTUS42 KKEY 252000 RRA
TAFEYW
TAF
KEYW 252023Z 2520/2618 14007KT P6SM FEW025=



000
FTUS42 KKEY 251500 AAA
TAFEYW
TAF AMD
KEYW 251508Z 2515/2612 14007KT P6SM FEW025=



000
FTUS42 KKEY 251100
TAFEYW
TAF
KEYW 251134Z 2512/2612 12007KT P6SM FEW025=



    US Dept of Commerce
    National Oceanic and Atmospheric Administration
    National Weather Service
    1325 East West Highway
    Silver Spring, MD 20910
    Page Author: NWS Internet Services Team
Disclaimer
Information Quality
Credits
Glossary
Privacy Policy
Freedom of Information Act (FOIA)
About Us
Career Opportunities